Time;durP1;ratioP1;P1;durP2;ratioP2;P2;SDS_P1;SDS_P2;PMS_P1;PMS_P2;Temp;Humidity;BMP_temperature;BMP_pressure;BME280_temperature;BME280_humidity;BME280_pressure;Samples;Min_cycle;Max_cycle;Signal;HPM_P1;HPM_P2
2021/07/27 00:00:37;;;;;;;18.67;11.43;;;;;;;20.00;92.13;97756.54;1580980;90;21376;-72
2021/07/27 00:03:05;;;;;;;17.70;11.88;;;;;;;20.00;90.76;97743.37;1563615;91;21040;-76
2021/07/27 00:05:31;;;;;;;20.43;11.43;;;;;;;19.93;92.95;97737.08;1581073;90;20956;-71
2021/07/27 00:07:57;;;;;;;13.80;10.98;;;;;;;19.95;91.52;97732.02;1580907;90;22045;-75
2021/07/27 00:10:27;;;;;;;13.28;10.25;;;;;;;19.91;92.23;97735.80;1581038;90;20888;-71
2021/07/27 00:12:53;;;;;;;18.32;12.65;;;;;;;19.94;92.40;97741.42;1581006;90;21432;-75
2021/07/27 00:15:19;;;;;;;16.60;11.30;;;;;;;19.98;93.02;97732.69;1581092;90;20925;-76
2021/07/27 00:17:45;;;;;;;15.32;11.68;;;;;;;20.02;92.91;97729.27;1580830;90;20992;-72
2021/07/27 00:20:11;;;;;;;14.23;10.45;;;;;;;20.04;92.83;97728.34;1581123;90;21328;-76
2021/07/27 00:22:41;;;;;;;19.17;11.28;;;;;;;20.05;92.14;97718.36;1580723;90;20987;-71
2021/07/27 00:25:10;;;;;;;21.68;10.55;;;;;;;20.05;91.66;97724.44;1581099;90;21055;-75
2021/07/27 00:27:36;;;;;;;14.45;10.30;;;;;;;20.05;91.81;97723.06;1580683;90;21048;-75
2021/07/27 00:30:05;;;;;;;16.23;11.35;;;;;;;20.05;92.39;97723.06;1581117;90;20963;-72
2021/07/27 00:32:33;;;;;;;17.92;11.18;;;;;;;20.06;92.12;97730.16;1581037;90;21001;-76
2021/07/27 00:34:59;;;;;;;17.10;12.63;;;;;;;20.04;91.92;97726.96;1579207;90;20956;-72
2021/07/27 00:37:28;;;;;;;13.80;9.78;;;;;;;20.04;92.90;97720.88;1580984;90;20980;-72
2021/07/27 00:39:53;;;;;;;17.30;10.70;;;;;;;20.08;91.97;97734.18;1540985;90;21394;-72
2021/07/27 00:42:19;;;;;;;16.80;11.20;;;;;;;20.05;91.85;97723.06;1580855;90;21550;-76
2021/07/27 00:44:45;;;;;;;16.25;11.73;;;;;;;19.96;91.61;97725.38;1581006;90;21455;-74
2021/07/27 00:47:11;;;;;;;18.40;10.95;;;;;;;19.97;92.09;97726.17;1581033;88;20960;-72
2021/07/27 00:49:37;;;;;;;15.93;10.50;;;;;;;19.95;91.62;97723.77;1580978;90;21000;-71
2021/07/27 00:52:04;;;;;;;15.48;11.75;;;;;;;19.93;91.81;97709.58;1580953;90;21406;-71
2021/07/27 00:54:30;;;;;;;14.35;10.53;;;;;;;19.84;91.76;97696.55;1581082;90;21012;-72
2021/07/27 00:56:56;;;;;;;15.38;11.30;;;;;;;19.76;92.56;97698.86;1580959;90;21133;-71
2021/07/27 00:59:22;;;;;;;18.73;11.48;;;;;;;19.75;91.75;97693.14;1581089;90;20903;-75
2021/07/27 01:01:49;;;;;;;13.65;10.50;;;;;;;19.79;91.61;97699.53;1580954;90;21031;-71
2021/07/27 01:04:15;;;;;;;17.73;12.20;;;;;;;19.84;92.87;97702.62;1580980;90;21034;-75
2021/07/27 01:06:41;;;;;;;15.98;10.10;;;;;;;19.81;92.12;97702.72;1580945;90;20904;-71
2021/07/27 01:09:07;;;;;;;13.83;10.15;;;;;;;19.77;92.05;97707.33;1580993;90;21988;-71
2021/07/27 01:11:33;;;;;;;12.40;9.23;;;;;;;19.78;91.88;97707.55;1580872;90;20955;-71
2021/07/27 01:13:59;;;;;;;13.88;10.45;;;;;;;19.79;91.62;97697.36;1540286;90;21570;-76
2021/07/27 01:16:29;;;;;;;15.98;10.70;;;;;;;19.73;91.26;97705.83;1563603;91;21488;-71
2021/07/27 01:40:55;;;;;;;20.70;11.12;;;;;;;19.51;92.14;97718.68;1549098;92;20999;-75
2021/07/27 01:43:18;;;;;;;15.93;9.75;;;;;;;19.42;92.28;97725.67;1583393;90;21038;-76
2021/07/27 01:45:40;;;;;;;13.70;11.25;;;;;;;19.38;92.12;97726.69;1585317;89;20920;-71
2021/07/27 01:48:06;;;;;;;19.00;11.18;;;;;;;19.37;91.91;97742.38;1563604;91;22105;-76
2021/07/27 01:50:32;;;;;;;18.25;11.25;;;;;;;19.41;91.81;97752.92;1580982;90;20941;-71
2021/07/27 01:53:14;;;;;;;16.57;10.78;;;;;;;19.43;91.97;97756.69;1580929;90;20978;-75
2021/07/27 01:55:38;;;;;;;15.65;10.90;;;;;;;19.37;92.21;97753.36;1580640;90;20992;-76
2021/07/27 01:58:04;;;;;;;14.90;10.23;;;;;;;19.34;92.16;97750.52;1580819;90;21071;-76
2021/07/27 02:00:32;;;;;;;17.12;11.08;;;;;;;19.33;92.08;97756.58;1580990;90;21135;-76
2021/07/27 02:02:58;;;;;;;19.40;12.70;;;;;;;19.31;92.14;97771.78;1580948;90;21007;-76
2021/07/27 02:05:24;;;;;;;22.73;11.88;;;;;;;19.31;92.14;97771.78;1581084;90;21516;-76
2021/07/27 02:07:56;;;;;;;17.62;11.95;;;;;;;19.35;93.08;97791.37;1580762;90;21020;-72
2021/07/27 02:10:23;;;;;;;17.48;11.48;;;;;;;19.32;93.50;97798.14;1580994;90;21000;-71
2021/07/27 02:13:00;;;;;;;18.17;11.10;;;;;;;19.34;92.66;97806.25;1580841;90;21468;-70
2021/07/27 02:15:21;;;;;;;14.58;10.72;;;;;;;19.35;93.60;97812.55;1580083;90;21369;-75
2021/07/27 02:17:47;;;;;;;17.65;10.60;;;;;;;19.35;93.16;97814.72;1580749;90;21016;-71
2021/07/27 02:20:13;;;;;;;16.05;11.68;;;;;;;19.38;93.15;97834.63;1581170;90;20953;-71
2021/07/27 02:22:41;;;;;;;19.20;10.68;;;;;;;19.43;92.97;97835.80;1580952;90;20996;-75
2021/07/27 02:25:09;;;;;;;17.37;12.23;;;;;;;19.47;92.83;97825.48;1581194;90;20984;-75
2021/07/27 02:27:35;;;;;;;19.42;10.82;;;;;;;19.39;92.58;97828.56;1580987;90;21420;-71
2021/07/27 02:30:02;;;;;;;16.12;10.48;;;;;;;19.40;92.85;97824.13;1581073;90;20980;-71
2021/07/27 02:32:28;;;;;;;14.58;11.55;;;;;;;19.46;92.54;97835.67;1581043;90;21409;-71
2021/07/27 02:34:54;;;;;;;20.25;12.33;;;;;;;19.43;93.90;97839.12;1581107;90;21008;-75
2021/07/27 02:37:20;;;;;;;21.23;11.08;;;;;;;19.48;93.05;97822.96;1580984;90;21328;-71
2021/07/27 02:39:46;;;;;;;13.95;11.05;;;;;;;19.49;92.56;97810.86;1581152;90;20904;-75
2021/07/27 02:42:27;;;;;;;14.73;11.65;;;;;;;19.41;92.43;97811.19;1580975;90;21102;-75
2021/07/27 02:44:53;;;;;;;13.30;9.93;;;;;;;19.38;92.82;97808.53;1581078;90;20984;-76
2021/07/27 02:47:19;;;;;;;15.30;10.48;;;;;;;19.29;92.96;97806.47;1555329;91;20996;-71
2021/07/27 02:49:45;;;;;;;15.20;10.70;;;;;;;19.20;92.92;97796.73;1554965;91;21080;-75
2021/07/27 02:52:11;;;;;;;15.58;11.97;;;;;;;19.12;92.64;97797.86;1554771;92;20977;-71
2021/07/27 02:54:37;;;;;;;14.98;12.78;;;;;;;19.16;92.59;97806.23;1555080;92;20916;-76
2021/07/27 02:57:03;;;;;;;16.35;10.78;;;;;;;19.22;92.37;97813.09;1554867;90;21029;-75
2021/07/27 02:59:29;;;;;;;14.93;10.18;;;;;;;19.20;92.24;97819.50;1555007;92;20924;-71
2021/07/27 03:01:55;;;;;;;14.33;9.50;;;;;;;19.12;92.35;97808.84;1554958;92;21251;-72
2021/07/27 03:04:21;;;;;;;15.45;10.50;;;;;;;19.05;92.08;97801.73;1555157;92;20986;-71
2021/07/27 03:06:47;;;;;;;16.30;11.38;;;;;;;19.01;92.44;97807.69;1555060;91;20951;-72
2021/07/27 03:09:34;;;;;;;15.25;10.72;;;;;;;19.02;92.46;97808.48;1554726;92;21059;-76
2021/07/27 03:11:45;;;;;;;16.90;10.25;;;;;;;19.01;92.55;97814.55;1555129;92;21484;-70
2021/07/27 03:14:11;;;;;;;19.30;10.95;;;;;;;19.00;92.71;97818.44;1555143;92;21944;-71
2021/07/27 03:16:37;;;;;;;13.78;11.65;;;;;;;18.96;92.67;97821.62;1555060;92;20988;-71
2021/07/27 03:19:02;;;;;;;15.63;9.80;;;;;;;18.92;92.90;97814.41;1554966;92;20916;-71
2021/07/27 03:21:28;;;;;;;13.95;9.50;;;;;;;18.95;93.12;97814.52;1555425;92;20970;-71
2021/07/27 03:23:54;;;;;;;12.93;9.55;;;;;;;18.89;93.00;97815.91;1555270;91;20942;-75
2021/07/27 03:26:22;;;;;;;15.00;10.35;;;;;;;18.87;93.00;97826.39;1555291;92;21337;-75
2021/07/27 03:28:48;;;;;;;15.00;11.38;;;;;;;18.86;92.88;97817.93;1554733;91;21362;-71
2021/07/27 03:31:14;;;;;;;19.35;10.88;;;;;;;18.90;93.56;97823.56;1555099;92;21140;-75
2021/07/27 03:33:40;;;;;;;18.27;10.60;;;;;;;18.94;93.44;97823.91;1554698;90;20920;-71
2021/07/27 03:36:06;;;;;;;13.30;9.75;;;;;;;19.05;93.56;97822.89;1554942;92;21123;-75
2021/07/27 03:38:39;;;;;;;18.57;10.82;;;;;;;19.07;94.06;97816.52;1555029;90;21371;-75
2021/07/27 03:41:10;;;;;;;15.75;9.90;;;;;;;19.13;93.38;97805.52;1555020;91;21065;-71
2021/07/27 03:43:36;;;;;;;18.35;11.40;;;;;;;19.17;93.62;97807.84;1554282;92;21034;-76
2021/07/27 03:46:03;;;;;;;14.10;10.25;;;;;;;19.25;93.19;97812.42;1549743;91;21067;-72
2021/07/27 03:48:29;;;;;;;14.05;10.45;;;;;;;19.34;92.72;97826.06;1554637;91;20988;-72
2021/07/27 03:50:55;;;;;;;20.00;10.35;;;;;;;19.38;92.37;97826.39;1554941;90;21207;-76
2021/07/27 03:53:24;;;;;;;15.25;10.53;;;;;;;19.42;92.50;97830.64;1554771;92;21064;-76
2021/07/27 03:55:50;;;;;;;;;;;;;;;19.41;92.62;97842.78;1557345;90;21081;-72
2021/07/27 03:58:16;;;;;;;21.20;9.68;;;;;;;19.42;92.75;97844.38;1554730;92;20184;-76
2021/07/27 04:00:42;;;;;;;15.50;10.60;;;;;;;19.44;92.00;97843.46;1555199;92;20990;-72
2021/07/27 04:03:09;;;;;;;16.40;11.48;;;;;;;19.44;92.51;97839.34;1555534;91;21180;-72
2021/07/27 04:05:35;;;;;;;15.95;10.20;;;;;;;19.46;92.81;97837.05;1554900;91;21119;-72
2021/07/27 04:08:01;;;;;;;14.93;10.58;;;;;;;19.48;92.82;97840.25;1554754;92;21442;-76
2021/07/27 04:10:27;;;;;;;16.60;9.53;;;;;;;19.48;92.67;97836.13;1554916;92;21016;-76
2021/07/27 04:12:53;;;;;;;13.60;9.85;;;;;;;19.48;92.07;97832.58;1555117;92;20922;-72
2021/07/27 04:15:30;;;;;;;14.70;10.53;;;;;;;19.43;91.64;97828.13;1554938;91;21982;-72
2021/07/27 04:17:56;;;;;;;17.32;10.23;;;;;;;19.37;91.73;97822.05;1553956;92;21073;-76
2021/07/27 04:20:22;;;;;;;21.17;11.10;;;;;;;19.40;91.84;97815.09;1555184;91;21614;-71
2021/07/27 04:22:48;;;;;;;16.30;11.65;;;;;;;19.41;91.75;97818.05;1554999;92;20925;-75
2021/07/27 04:25:14;;;;;;;15.72;12.10;;;;;;;19.40;91.67;97813.71;1555076;92;21096;-72
2021/07/27 04:27:40;;;;;;;15.43;11.53;;;;;;;19.42;91.71;97824.58;1562594;91;22017;-72
2021/07/27 04:30:07;;;;;;;16.20;12.68;;;;;;;19.50;91.84;97820.13;1562918;91;21007;-75
2021/07/27 04:32:33;;;;;;;14.30;11.48;;;;;;;19.59;91.51;97822.22;1562712;91;21079;-73
2021/07/27 04:34:59;;;;;;;21.90;11.85;;;;;;;19.61;91.43;97822.67;1542053;92;20965;-76
2021/07/27 04:37:25;;;;;;;18.42;11.28;;;;;;;19.63;91.28;97817.62;1556967;92;21038;-71
2021/07/27 04:39:51;;;;;;;14.65;10.63;;;;;;;19.68;91.19;97812.48;1555383;90;21908;-76
2021/07/27 04:42:17;;;;;;;16.35;12.28;;;;;;;19.76;91.21;97817.06;1554832;90;20929;-75
2021/07/27 04:44:43;;;;;;;17.20;12.50;;;;;;;19.81;90.97;97816.02;1554933;92;21574;-72
2021/07/27 04:47:09;;;;;;;16.25;13.30;;;;;;;19.89;90.78;97808.22;1554837;92;20866;-75
2021/07/27 04:49:35;;;;;;;22.65;14.35;;;;;;;20.01;90.61;97809.59;1554918;92;21009;-76
2021/07/27 04:52:01;;;;;;;15.45;12.15;;;;;;;20.15;90.61;97794.07;1554693;92;21936;-76
2021/07/27 04:54:31;;;;;;;18.17;12.30;;;;;;;20.32;90.39;97793.80;1554906;92;20936;-76
2021/07/27 04:56:54;;;;;;;17.42;12.18;;;;;;;20.45;89.43;97781.64;1554702;90;21104;-72
2021/07/27 04:59:20;;;;;;;25.70;13.53;;;;;;;20.43;89.39;97774.31;1554735;90;20961;-72
2021/07/27 05:01:46;;;;;;;15.38;11.15;;;;;;;20.50;89.17;97766.81;1554971;92;20937;-75
2021/07/27 05:04:12;;;;;;;13.68;11.70;;;;;;;20.58;89.01;97767.81;1554783;92;21340;-76
2021/07/27 05:06:38;;;;;;;15.70;11.55;;;;;;;20.67;88.68;97763.75;1554896;92;21035;-76
2021/07/27 05:09:04;;;;;;;15.90;10.82;;;;;;;20.72;88.82;97769.02;1554674;92;21025;-72
2021/07/27 05:11:30;;;;;;;17.57;10.75;;;;;;;20.78;88.72;97761.30;1554938;92;20980;-73
2021/07/27 05:13:56;;;;;;;14.18;10.23;;;;;;;20.96;88.25;97760.40;1554727;92;20909;-76
2021/07/27 05:16:22;;;;;;;20.68;12.28;;;;;;;21.06;87.72;97770.89;1555001;90;21344;-71
2021/07/27 05:18:48;;;;;;;15.25;10.50;;;;;;;21.06;87.71;97762.63;1554643;92;21671;-72
2021/07/27 05:21:18;;;;;;;19.12;11.12;;;;;;;21.14;87.35;97761.65;1554957;92;21060;-76
2021/07/27 05:23:44;;;;;;;19.42;11.22;;;;;;;21.31;86.95;97750.88;1554762;90;21104;-76
2021/07/27 05:26:10;;;;;;;17.40;11.12;;;;;;;21.33;86.87;97752.70;1554885;92;21535;-72
2021/07/27 05:28:36;;;;;;;20.57;11.45;;;;;;;21.40;86.87;97752.30;1554721;90;21493;-71
2021/07/27 05:31:05;;;;;;;14.55;10.75;;;;;;;21.53;86.55;97759.07;1554897;90;21618;-75
2021/07/27 05:33:32;;;;;;;13.13;10.68;;;;;;;21.74;86.42;97754.06;1554618;92;20992;-75
2021/07/27 05:35:58;;;;;;;12.75;10.23;;;;;;;21.86;85.36;97749.00;1554963;92;21108;-72
2021/07/27 05:38:24;;;;;;;19.12;11.68;;;;;;;22.06;84.96;97754.78;1554737;90;21023;-71
2021/07/27 05:40:51;;;;;;;11.63;10.15;;;;;;;22.15;83.76;97755.98;1554943;92;21070;-73
2021/07/27 05:43:17;;;;;;;12.60;10.00;;;;;;;22.31;84.09;97754.55;1554697;90;21512;-71
2021/07/27 05:45:43;;;;;;;16.05;10.65;;;;;;;22.47;81.44;97751.10;1554849;90;21012;-72
2021/07/27 05:48:09;;;;;;;13.98;10.68;;;;;;;22.64;81.94;97752.03;1554699;90;20933;-71
2021/07/27 05:50:35;;;;;;;12.07;9.40;;;;;;;22.79;81.61;97744.82;1554834;92;21730;-72
2021/07/27 05:53:01;;;;;;;13.13;9.38;;;;;;;22.92;81.22;97743.53;1529866;93;21222;-72
2021/07/27 05:55:26;;;;;;;13.22;9.08;;;;;;;23.08;80.26;97749.73;1554863;91;20928;-71
2021/07/27 05:57:52;;;;;;;14.90;9.55;;;;;;;23.31;79.77;97758.59;1530172;93;20920;-75
2021/07/27 06:00:19;;;;;;;11.78;9.35;;;;;;;23.35;77.95;97759.46;1554858;92;20901;-72
2021/07/27 06:02:45;;;;;;;15.23;9.13;;;;;;;23.54;78.41;97765.48;1509265;93;21129;-75
2021/07/27 06:05:11;;;;;;;16.30;9.95;;;;;;;23.66;77.28;97769.45;1554959;91;22049;-72
2021/07/27 06:07:37;;;;;;;17.20;9.55;;;;;;;23.80;76.79;97772.44;1534652;92;21036;-75
2021/07/27 06:10:03;;;;;;;14.03;8.58;;;;;;;23.98;76.22;97772.69;1530375;93;20927;-73
2021/07/27 06:12:29;;;;;;;12.50;9.23;;;;;;;24.16;72.92;97782.63;1554755;91;20969;-76
2021/07/27 06:14:55;;;;;;;11.83;9.65;;;;;;;24.08;73.84;97781.72;1533833;92;20932;-76
2021/07/27 06:17:21;;;;;;;12.70;9.03;;;;;;;24.24;73.45;97783.52;1554856;91;21175;-75
2021/07/27 06:19:47;;;;;;;14.93;8.68;;;;;;;24.36;73.04;97777.20;1529936;93;21601;-76
2021/07/27 06:22:15;;;;;;;14.55;9.15;;;;;;;24.47;71.50;97784.25;1554869;92;20949;-75
2021/07/27 06:24:41;;;;;;;13.22;8.85;;;;;;;24.44;71.52;97795.50;1534784;91;21000;-72
2021/07/27 06:27:07;;;;;;;13.55;10.08;;;;;;;24.62;71.45;97799.88;1530343;93;20991;-76
2021/07/27 06:29:33;;;;;;;12.33;10.28;;;;;;;24.78;71.88;97805.77;1554613;92;21342;-72
2021/07/27 06:31:59;;;;;;;12.63;8.18;;;;;;;25.16;71.85;97801.87;1554803;92;20968;-77
2021/07/27 06:34:25;;;;;;;12.95;7.92;;;;;;;25.26;69.88;97807.51;1530150;93;21044;-74
2021/07/27 06:36:51;;;;;;;13.53;7.58;;;;;;;25.14;68.26;97823.05;1554955;91;20977;-72
2021/07/27 06:39:17;;;;;;;16.95;10.10;;;;;;;25.07;70.29;97831.28;1531469;92;21024;-77
2021/07/27 06:41:44;;;;;;;19.02;10.25;;;;;;;24.62;70.76;97844.19;1554876;92;22017;-72
2021/07/27 06:44:10;;;;;;;1226.85;415.45;;;;;;;24.25;71.92;97846.81;1554611;92;20969;-72
2021/07/27 06:46:37;;;;;;;22.52;11.12;;;;;;;23.58;75.51;97840.41;1554896;92;20916;-78
2021/07/27 06:49:04;;;;;;;15.73;9.93;;;;;;;22.89;78.12;97846.45;1575017;90;21368;-72
2021/07/27 06:51:30;;;;;;;18.77;10.55;;;;;;;22.58;80.17;97857.05;1581040;90;21027;-72
2021/07/27 06:53:56;;;;;;;16.95;10.28;;;;;;;22.56;79.31;97858.55;1580782;90;21265;-72
2021/07/27 06:56:22;;;;;;;15.85;10.35;;;;;;;22.28;81.34;97851.27;1580890;90;21555;-72
2021/07/27 06:58:48;;;;;;;15.05;10.78;;;;;;;22.24;82.97;97855.91;1580645;90;21043;-72
2021/07/27 07:01:14;;;;;;;15.13;9.88;;;;;;;22.13;82.72;97856.23;1580865;90;21055;-77
2021/07/27 07:03:41;;;;;;;12.78;9.83;;;;;;;22.16;83.14;97847.26;1580793;89;20967;-77
2021/07/27 07:06:07;;;;;;;13.90;9.25;;;;;;;22.21;82.21;97850.52;1581174;90;21091;-73
2021/07/27 07:08:33;;;;;;;10.63;9.53;;;;;;;22.37;82.10;97860.13;1580759;90;21072;-77
2021/07/27 07:11:03;;;;;;;12.80;8.83;;;;;;;22.58;81.42;97867.30;1555861;92;21034;-73
2021/07/27 07:13:29;;;;;;;15.90;9.73;;;;;;;22.64;81.59;97869.39;1555448;92;20982;-72
2021/07/27 07:15:55;;;;;;;14.93;9.78;;;;;;;22.88;81.04;97864.77;1555630;92;21544;-72
2021/07/27 07:18:21;;;;;;;13.22;8.98;;;;;;;22.90;81.36;97863.27;1555635;90;21163;-72
2021/07/27 07:20:48;;;;;;;19.02;10.53;;;;;;;23.15;80.77;97868.45;1566077;90;21451;-73
2021/07/27 07:23:14;;;;;;;16.05;9.45;;;;;;;23.42;80.15;97870.75;1563771;91;21040;-72
2021/07/27 07:25:42;;;;;;;19.57;10.40;;;;;;;23.63;79.76;97866.41;1581010;90;21487;-77
2021/07/27 07:28:09;;;;;;;22.93;11.07;;;;;;;23.66;78.75;97866.83;1581138;90;21481;-77
2021/07/27 07:30:35;;;;;;;18.05;10.95;;;;;;;23.89;78.45;97875.92;1581041;90;21126;-72
2021/07/27 07:33:00;;;;;;;14.15;11.95;;;;;;;24.30;76.67;97878.92;1580943;90;21003;-72
2021/07/27 07:35:27;;;;;;;15.60;10.45;;;;;;;24.43;76.03;97880.31;1581147;90;20907;-77
2021/07/27 07:37:54;;;;;;;11.83;9.88;;;;;;;24.32;75.27;97886.29;1580862;90;21022;-72
2021/07/27 07:40:20;;;;;;;15.25;11.65;;;;;;;24.31;74.89;97893.77;1581049;90;20989;-72
2021/07/27 07:42:46;;;;;;;18.25;11.50;;;;;;;24.38;74.41;97898.66;1581008;90;21039;-72
2021/07/27 07:45:13;;;;;;;15.05;13.03;;;;;;;24.35;75.28;97895.23;1580845;90;21534;-77
2021/07/27 07:47:41;;;;;;;17.55;12.50;;;;;;;24.23;75.56;97905.91;1583089;88;21373;-71
2021/07/27 07:50:07;;;;;;;15.15;13.25;;;;;;;24.49;75.08;97909.28;1620930;88;21813;-72
2021/07/27 07:52:33;;;;;;;18.82;14.35;;;;;;;23.90;75.26;97905.98;1620990;88;21059;-77
2021/07/27 07:55:07;;;;;;;19.40;15.72;;;;;;;23.96;74.19;97907.86;1620713;88;21202;-77
2021/07/27 07:57:33;;;;;;;19.65;15.85;;;;;;;24.17;74.22;97912.92;1620427;88;21103;-73
2021/07/27 08:00:00;;;;;;;19.62;14.28;;;;;;;25.05;73.13;97904.91;1620686;88;20951;-77
2021/07/27 08:02:30;;;;;;;19.57;14.45;;;;;;;25.34;70.85;97904.63;1589699;90;21012;-72
2021/07/27 08:04:56;;;;;;;15.88;13.38;;;;;;;25.48;70.41;97920.05;1589603;88;21089;-73
2021/07/27 08:07:22;;;;;;;18.50;14.15;;;;;;;26.03;70.40;97915.42;1589663;90;21260;-72
2021/07/27 08:09:48;;;;;;;16.77;14.05;;;;;;;25.90;68.22;97932.77;1620715;88;21030;-78
2021/07/27 08:12:15;;;;;;;23.35;16.10;;;;;;;25.34;68.62;97937.32;1621053;88;21002;-73
2021/07/27 08:14:43;;;;;;;17.92;14.18;;;;;;;24.66;71.00;97941.17;1620704;88;20972;-78
2021/07/27 08:17:12;;;;;;;17.87;15.95;;;;;;;25.27;69.99;97946.94;1620970;88;20944;-78
2021/07/27 08:19:39;;;;;;;16.60;14.70;;;;;;;25.92;68.42;97943.69;1620714;88;21400;-73
2021/07/27 08:22:05;;;;;;;16.00;13.70;;;;;;;26.56;66.18;97940.63;1620917;88;21051;-73
2021/07/27 08:24:33;;;;;;;16.00;14.33;;;;;;;26.81;64.37;97943.55;1620786;88;20999;-73
2021/07/27 08:26:59;;;;;;;17.27;14.73;;;;;;;26.99;62.64;97943.05;1621170;88;20982;-78
2021/07/27 08:29:25;;;;;;;17.32;13.78;;;;;;;27.01;63.54;97944.08;1620879;88;21423;-73
2021/07/27 08:31:51;;;;;;;19.57;14.28;;;;;;;26.64;64.28;97945.05;1620861;88;22085;-72
2021/07/27 08:34:18;;;;;;;20.32;15.55;;;;;;;26.63;64.10;97937.90;1620688;88;20911;-78
2021/07/27 08:36:45;;;;;;;20.82;14.53;;;;;;;27.35;62.35;97944.64;1620940;88;21062;-78
2021/07/27 08:39:12;;;;;;;16.07;14.28;;;;;;;27.35;60.06;97948.81;1620782;88;20963;-73
2021/07/27 08:41:39;;;;;;;17.95;15.98;;;;;;;28.34;59.89;97947.59;1620889;88;21070;-74
2021/07/27 08:44:08;;;;;;;14.20;12.73;;;;;;;28.90;57.26;97949.32;1621019;88;21295;-78
2021/07/27 08:46:33;;;;;;;;;;;;;;;29.64;55.23;97949.59;1621551;88;20975;-79
2021/07/27 08:48:59;;;;;;;15.43;13.85;;;;;;;30.02;53.23;97944.96;1603631;88;20203;-79
2021/07/27 08:51:26;;;;;;;19.07;14.03;;;;;;;30.86;53.33;97946.05;1581200;90;21016;-79
2021/07/27 08:53:52;;;;;;;21.12;14.00;;;;;;;30.17;53.27;97951.27;1580794;90;21083;-78
2021/07/27 08:56:18;;;;;;;17.23;12.00;;;;;;;29.43;53.95;97956.67;1581112;90;21340;-78
2021/07/27 08:58:44;;;;;;;20.82;14.35;;;;;;;28.58;55.35;97955.73;1560284;90;21500;-73
2021/07/27 09:01:10;;;;;;;17.17;12.88;;;;;;;27.98;57.65;97948.76;1581065;90;20991;-74
2021/07/27 09:03:50;;;;;;;14.50;13.10;;;;;;;27.05;60.16;97946.30;1580783;90;21488;-73
2021/07/27 09:06:24;;;;;;;19.50;14.68;;;;;;;26.65;61.28;97952.20;1581142;90;21463;-72
2021/07/27 09:09:05;;;;;;;20.70;15.08;;;;;;;26.27;63.70;97952.91;1580805;90;21865;-77
2021/07/27 09:11:32;;;;;;;18.80;15.05;;;;;;;26.07;64.32;97945.42;1564365;90;20960;-72
2021/07/27 09:13:58;;;;;;;17.80;14.70;;;;;;;26.17;63.65;97950.84;1581029;90;20957;-72
2021/07/27 09:16:24;;;;;;;18.55;15.93;;;;;;;26.23;64.56;97948.49;1581000;90;21757;-73
2021/07/27 09:18:59;;;;;;;19.37;14.83;;;;;;;26.38;63.54;97955.19;1580770;90;21015;-72
2021/07/27 09:21:26;;;;;;;19.60;13.68;;;;;;;26.76;63.07;97948.91;1581192;90;21163;-77
2021/07/27 09:23:52;;;;;;;19.95;14.63;;;;;;;27.18;62.53;97948.34;1580600;90;21011;-72
2021/07/27 09:26:21;;;;;;;19.00;15.00;;;;;;;27.88;60.75;97955.91;1581101;90;21077;-77
2021/07/27 09:28:46;;;;;;;17.17;13.80;;;;;;;29.21;58.01;97953.97;1580931;90;21007;-73
2021/07/27 09:31:12;;;;;;;17.07;14.18;;;;;;;30.36;51.78;97959.69;1581165;90;20971;-77
2021/07/27 09:33:38;;;;;;;18.98;13.38;;;;;;;31.49;51.33;97958.30;1580849;90;21145;-78
2021/07/27 09:36:05;;;;;;;16.02;13.32;;;;;;;32.23;48.77;97950.02;1581121;90;20982;-78
2021/07/27 09:38:32;;;;;;;18.40;12.73;;;;;;;32.78;46.06;97945.86;1580956;90;20952;-79
2021/07/27 09:41:07;;;;;;;16.65;13.48;;;;;;;33.66;45.51;97953.72;1580991;90;21505;-78
2021/07/27 09:43:33;;;;;;;18.30;12.95;;;;;;;34.61;44.87;97956.09;1580780;90;20963;-74
2021/07/27 09:46:00;;;;;;;13.65;11.75;;;;;;;35.52;43.07;97943.52;1580724;90;21247;-75
2021/07/27 09:48:28;;;;;;;15.20;10.40;;;;;;;35.73;40.88;97941.30;1560636;88;27239;-78
2021/07/27 09:50:55;;;;;;;15.45;11.08;;;;;;;36.09;40.25;97943.79;1580875;90;20993;-74
2021/07/27 09:53:21;;;;;;;12.07;9.28;;;;;;;35.93;37.96;97947.52;1580898;90;20975;-79
2021/07/27 09:55:47;;;;;;;16.12;9.50;;;;;;;34.30;38.88;97940.20;1580740;90;21456;-79
2021/07/27 09:58:14;;;;;;;15.25;9.73;;;;;;;35.40;39.28;97933.64;1580861;90;22054;-79
2021/07/27 10:01:01;;;;;;;14.10;10.18;;;;;;;33.62;39.66;97943.98;1555405;92;21076;-78
2021/07/27 10:03:30;;;;;;;;;;;;;;;31.64;44.27;97949.89;1569358;90;21428;-78
2021/07/27 10:06:01;;;;;;;12.58;10.53;;;;;;;32.69;43.57;97947.83;1585174;90;20157;-78
2021/07/27 10:08:34;;;;;;;13.08;10.50;;;;;;;32.68;43.85;97949.05;1563609;91;21047;-79
2021/07/27 10:11:12;;;;;;;13.08;11.10;;;;;;;32.98;42.83;97942.48;1563499;90;21174;-79
2021/07/27 10:13:40;;;;;;;15.13;11.30;;;;;;;34.70;40.13;97939.39;1563437;91;21004;-79
2021/07/27 10:16:08;;;;;;;;;;;;;;;35.40;39.19;97933.02;1571775;90;21439;-79
2021/07/27 10:18:35;;;;;;;12.03;9.78;;;;;;;36.23;38.00;97933.43;1593853;90;20168;-79
2021/07/27 10:21:28;;;;;;;11.75;9.13;;;;;;;35.46;36.70;97934.03;1555821;92;20998;-74
2021/07/27 10:23:59;;;;;;;10.90;9.78;;;;;;;36.47;35.43;97939.50;1585062;90;21184;-79
2021/07/27 10:26:31;;;;;;;14.43;10.03;;;;;;;36.25;35.98;97935.20;1585279;90;21467;-79
2021/07/27 10:28:57;;;;;;;16.55;10.68;;;;;;;35.08;37.02;97930.33;1595857;90;21015;-79
2021/07/27 10:31:43;;;;;;;13.85;10.53;;;;;;;36.35;36.90;97938.89;1563815;91;20971;-75
2021/07/27 10:34:13;;;;;;;12.00;9.97;;;;;;;36.46;35.42;97932.29;1581198;90;21042;-78
2021/07/27 10:36:42;;;;;;;15.25;10.45;;;;;;;36.54;35.84;97937.86;1555694;92;21289;-75
2021/07/27 10:39:18;;;;;;;15.95;9.83;;;;;;;36.92;35.72;97939.80;1585230;90;21473;-75
2021/07/27 10:41:49;;;;;;;13.70;10.28;;;;;;;37.31;35.36;97937.58;1555796;92;21528;-80
2021/07/27 10:44:23;;;;;;;14.87;10.00;;;;;;;36.76;34.57;97937.91;1578289;90;21067;-78
2021/07/27 10:46:51;;;;;;;14.75;9.88;;;;;;;36.62;35.22;97941.22;1595767;90;21428;-79
2021/07/27 10:49:24;;;;;;;11.90;10.43;;;;;;;36.65;35.84;97955.19;1603075;88;21554;-75
2021/07/27 10:51:54;;;;;;;11.75;10.10;;;;;;;36.09;35.67;97955.06;1620716;88;21015;-79
2021/07/27 10:54:31;;;;;;;16.93;11.57;;;;;;;36.61;35.70;97953.13;1594297;88;21146;-75
2021/07/27 10:57:06;;;;;;;12.30;11.08;;;;;;;35.45;37.29;97947.95;1620919;88;20976;-79
2021/07/27 10:59:36;;;;;;;14.43;11.40;;;;;;;35.27;37.87;97940.00;1620979;88;20983;-79
2021/07/27 11:02:12;;;;;;;13.30;12.00;;;;;;;33.13;42.00;97948.60;1589552;90;21136;-73
2021/07/27 11:04:38;;;;;;;15.38;12.25;;;;;;;33.77;41.86;97943.66;1620829;87;21051;-79
2021/07/27 11:07:10;;;;;;;14.93;11.65;;;;;;;33.96;41.30;97943.45;1620911;88;21062;-79
2021/07/27 11:09:51;;;;;;;16.00;12.50;;;;;;;32.91;43.75;97952.46;1620848;88;20991;-74
2021/07/27 11:12:42;;;;;;;19.23;13.85;;;;;;;31.04;47.56;97938.05;1620987;88;21022;-78
2021/07/27 11:15:20;;;;;;;18.23;13.50;;;;;;;31.27;47.91;97933.97;1619665;88;21194;-79
2021/07/27 11:18:00;;;;;;;15.63;11.85;;;;;;;33.27;43.90;97930.08;1620700;88;20994;-79
2021/07/27 11:20:34;;;;;;;12.28;10.15;;;;;;;33.77;42.10;97926.19;1620946;88;20995;-74
2021/07/27 11:23:10;;;;;;;12.88;9.78;;;;;;;34.39;40.60;97931.94;1595278;88;21011;-80
2021/07/27 11:25:36;;;;;;;10.20;9.20;;;;;;;35.68;38.13;97932.77;1620637;88;21056;-74
2021/07/27 11:28:15;;;;;;;10.60;8.85;;;;;;;34.90;38.31;97929.42;1589380;90;21295;-74
2021/07/27 11:30:42;;;;;;;15.45;9.25;;;;;;;36.26;37.46;97926.11;1620706;88;20956;-74
2021/07/27 11:33:13;;;;;;;9.90;8.73;;;;;;;35.50;36.27;97930.50;1620995;88;21072;-74
2021/07/27 11:35:49;;;;;;;11.88;8.70;;;;;;;37.01;35.83;97935.63;1620780;88;20991;-79
2021/07/27 11:38:32;;;;;;;10.10;7.90;;;;;;;36.72;35.99;97930.17;1577171;90;21442;-79
2021/07/27 11:41:05;;;;;;;12.00;8.68;;;;;;;36.76;35.84;97920.19;1612838;89;21039;-75
2021/07/27 11:43:35;;;;;;;12.30;8.83;;;;;;;37.01;34.72;97918.69;1589685;90;20955;-78